Time,TemperatureF,DewpointF,PressureIn,WindDirection,WindDirectionDegrees,WindSpeedMPH,WindSpeedGustMPH,Humidity,HourlyPrecipIn,Conditions,Clouds,dailyrainin,SoftwareType,DateUTC
2013-03-25 00:00:00,29.7,17.4,28.91,ENE,68,0.4,1.6,56,-99.99,,,-99.99,WSDL version 420,2013-03-25 04:00:00,
2013-03-25 00:02:00,29.7,17.4,28.91,ENE,68,0.2,1.6,56,-99.99,,,-99.99,WSDL version 420,2013-03-25 04:02:00,
2013-03-25 00:08:00,29.7,17.4,28.91,ENE,60,0.0,1.6,56,-99.99,,,-99.99,WSDL version 420,2013-03-25 04:08:00,
2013-03-25 00:10:00,29.7,17.4,-100.00,NE,45,0.0,1.1,56,-99.99,,,-99.99,WSDL version 420,2013-03-25 04:10:00,
2013-03-25 00:17:00,29.8,17.6,28.88,NE,45,0.0,0.9,56,-99.99,,,-99.99,WSDL version 420,2013-03-25 04:17:00,
2013-03-25 00:19:00,29.8,17.8,-100.00,NE,45,0.0,0.0,57,-99.99,,,-99.99,WSDL version 420,2013-03-25 04:19:00,
2013-03-25 00:25:00,29.9,18.0,28.88,NE,45,0.0,0.0,57,-99.99,,,-99.99,WSDL version 420,2013-03-25 04:25:00,
2013-03-25 00:33:00,29.9,18.0,28.88,NE,45,0.0,0.0,57,-99.99,,,-99.99,WSDL version 420,2013-03-25 04:33:00,
2013-03-25 00:38:00,29.8,18.0,28.88,NE,45,0.0,0.0,57,-99.99,,,-99.99,WSDL version 420,2013-03-25 04:38:00,
2013-03-25 00:44:00,29.9,18.2,28.88,NE,45,0.0,0.0,58,-99.99,,,-99.99,WSDL version 420,2013-03-25 04:44:00,
2013-03-25 00:50:00,30.0,18.5,28.88,NE,45,0.0,0.0,58,-99.99,,,-99.99,WSDL version 420,2013-03-25 04:50:00,
2013-03-25 00:56:00,29.9,18.3,28.88,NE,45,0.0,0.0,58,-99.99,,,-99.99,WSDL version 420,2013-03-25 04:56:00,
2013-03-25 01:02:00,29.8,18.3,28.88,NE,45,0.0,0.0,58,-99.99,,,-99.99,WSDL version 420,2013-03-25 05:02:00,
2013-03-25 01:08:00,29.8,18.3,28.88,NE,45,0.0,0.0,58,-99.99,,,-99.99,WSDL version 420,2013-03-25 05:08:00,
2013-03-25 01:14:00,29.7,18.2,28.85,NE,45,0.0,0.0,59,-99.99,,,-99.99,WSDL version 420,2013-03-25 05:14:00,
2013-03-25 01:20:00,29.6,18.4,28.85,NE,45,0.0,0.0,59,-99.99,,,-99.99,WSDL version 420,2013-03-25 05:20:00,
2013-03-25 01:26:00,29.5,18.3,28.85,NE,45,0.0,0.0,59,-99.99,,,-99.99,WSDL version 420,2013-03-25 05:26:00,
2013-03-25 01:38:00,29.1,18.0,28.85,NE,45,0.0,0.0,59,-99.99,,,-99.99,WSDL version 420,2013-03-25 05:38:00,
2013-03-25 01:43:00,28.9,17.8,28.82,NE,45,0.7,1.3,59,-99.99,,,-99.99,WSDL version 420,2013-03-25 05:43:00,
2013-03-25 01:49:00,28.7,17.8,28.82,NE,45,0.0,1.3,60,-99.99,,,-99.99,WSDL version 420,2013-03-25 05:49:00,
2013-03-25 01:55:00,28.5,17.7,28.82,NE,45,0.4,1.3,60,-99.99,,,-99.99,WSDL version 420,2013-03-25 05:55:00,
2013-03-25 02:02:00,28.6,17.8,28.85,NE,45,0.4,1.3,60,-99.99,,,-99.99,WSDL version 420,2013-03-25 06:02:00,
2013-03-25 02:08:00,28.6,18.2,28.85,NNE,23,0.0,1.1,61,-99.99,,,-99.99,WSDL version 420,2013-03-25 06:08:00,
2013-03-25 02:14:00,28.5,18.0,28.82,NNE,26,0.6,2.0,61,-99.99,,,-99.99,WSDL version 420,2013-03-25 06:14:00,
2013-03-25 02:20:00,28.6,18.2,28.82,NE,45,1.2,2.0,61,-99.99,,,-99.99,WSDL version 420,2013-03-25 06:20:00,
2013-03-25 02:26:00,28.6,18.2,28.82,NE,51,0.1,2.2,61,-99.99,,,-99.99,WSDL version 420,2013-03-25 06:26:00,
2013-03-25 02:32:00,28.6,18.5,28.85,ENE,62,1.3,2.5,62,-99.99,,,-99.99,WSDL version 420,2013-03-25 06:32:00,
2013-03-25 02:37:00,28.8,18.7,28.85,NE,34,1.2,2.5,62,-99.99,,,-99.99,WSDL version 420,2013-03-25 06:37:00,
2013-03-25 02:43:00,28.8,18.7,28.85,NNE,23,1.2,2.5,62,-99.99,,,-99.99,WSDL version 420,2013-03-25 06:43:00,
2013-03-25 02:49:00,28.9,18.8,28.85,NNW,341,1.6,2.5,62,-99.99,,,-99.99,WSDL version 420,2013-03-25 06:49:00,
2013-03-25 02:55:00,28.9,19.2,28.85,NNE,16,1.2,3.1,63,-99.99,,,-99.99,WSDL version 420,2013-03-25 06:55:00,
2013-03-25 03:00:00,28.9,19.2,28.85,NE,35,1.0,3.4,63,-99.99,,,-99.99,WSDL version 420,2013-03-25 07:00:00,
2013-03-25 03:06:00,28.8,19.0,28.85,ENE,68,0.3,2.5,63,-99.99,,,-99.99,WSDL version 420,2013-03-25 07:06:00,
2013-03-25 03:12:00,28.8,19.0,28.85,NNE,29,1.5,2.7,63,-99.99,,,-99.99,WSDL version 420,2013-03-25 07:12:00,
2013-03-25 03:18:00,28.8,19.0,28.82,ENE,68,1.4,2.7,63,-99.99,,,-99.99,WSDL version 420,2013-03-25 07:18:00,
2013-03-25 03:24:00,28.8,19.0,28.82,NNE,23,1.0,2.5,63,-99.99,,,-99.99,WSDL version 420,2013-03-25 07:24:00,
2013-03-25 03:35:00,28.6,18.8,28.85,ENE,68,0.0,2.0,63,-99.99,,,-99.99,WSDL version 420,2013-03-25 07:35:00,
2013-03-25 03:41:00,28.6,18.8,28.85,ENE,68,0.0,0.0,63,-99.99,,,-99.99,WSDL version 420,2013-03-25 07:41:00,
2013-03-25 03:47:00,28.6,18.8,28.82,ENE,68,0.0,2.0,63,-99.99,,,-99.99,WSDL version 420,2013-03-25 07:47:00,
2013-03-25 03:53:00,28.6,18.8,28.82,ENE,68,0.0,1.1,63,-99.99,,,-99.99,WSDL version 420,2013-03-25 07:53:00,
2013-03-25 03:59:00,28.6,18.8,28.79,ENE,68,0.0,1.1,63,-99.99,,,-99.99,WSDL version 420,2013-03-25 07:59:00,
2013-03-25 04:05:00,28.6,19.1,28.79,NE,48,0.0,1.1,64,-99.99,,,-99.99,WSDL version 420,2013-03-25 08:05:00,
2013-03-25 04:11:00,28.6,19.1,28.79,NNE,23,0.0,1.1,64,-99.99,,,-99.99,WSDL version 420,2013-03-25 08:11:00,
2013-03-25 04:17:00,28.6,19.1,28.79,NNE,23,0.6,1.6,64,-99.99,,,-99.99,WSDL version 420,2013-03-25 08:17:00,
2013-03-25 04:22:00,28.8,19.3,28.79,NNE,23,0.1,2.0,64,-99.99,,,-99.99,WSDL version 420,2013-03-25 08:22:00,
2013-03-25 04:28:00,28.8,19.3,28.79,NNE,23,0.4,2.2,64,-99.99,,,-99.99,WSDL version 420,2013-03-25 08:28:00,
2013-03-25 04:34:00,28.9,19.8,28.79,NE,45,0.4,2.2,65,-99.99,,,-99.99,WSDL version 420,2013-03-25 08:34:00,
2013-03-25 04:43:00,29.1,20.0,28.79,NNE,23,0.8,2.5,65,-99.99,,,-99.99,WSDL version 420,2013-03-25 08:43:00,
2013-03-25 04:49:00,29.2,20.0,28.79,NNE,23,1.0,2.7,65,-99.99,,,-99.99,WSDL version 420,2013-03-25 08:49:00,
2013-03-25 04:55:00,29.3,20.2,28.79,North,360,1.8,2.7,65,-99.99,,,-99.99,WSDL version 420,2013-03-25 08:55:00,
2013-03-25 05:01:00,29.5,20.3,28.79,North,6,1.4,2.7,65,-99.99,,,-99.99,WSDL version 420,2013-03-25 09:01:00,
2013-03-25 05:07:00,29.5,20.3,-100.00,NNW,338,1.5,2.7,65,-99.99,,,-99.99,WSDL version 420,2013-03-25 09:07:00,
2013-03-25 05:21:00,29.5,20.3,28.79,NE,45,1.1,3.8,65,-99.99,,,-99.99,WSDL version 420,2013-03-25 09:21:00,
2013-03-25 05:30:00,29.5,20.0,28.79,North,8,0.1,1.6,64,-99.99,,,-99.99,WSDL version 420,2013-03-25 09:30:00,
2013-03-25 05:36:00,29.5,20.0,28.79,North,356,1.2,2.2,64,-99.99,,,-99.99,WSDL version 420,2013-03-25 09:36:00,
2013-03-25 05:42:00,29.5,20.2,28.79,North,360,0.6,2.2,65,-99.99,,,-99.99,WSDL version 420,2013-03-25 09:42:00,
2013-03-25 05:48:00,29.6,20.4,28.79,North,353,1.8,3.1,65,-99.99,,,-99.99,WSDL version 420,2013-03-25 09:48:00,
2013-03-25 05:54:00,29.7,20.5,28.79,NNW,338,2.0,3.4,65,-99.99,,,-99.99,WSDL version 420,2013-03-25 09:54:00,
2013-03-25 06:00:00,29.8,21.0,28.82,North,351,2.1,4.0,66,-99.99,,,-99.99,WSDL version 420,2013-03-25 10:00:00,
2013-03-25 06:07:00,29.8,21.0,28.82,NNW,342,2.3,3.8,66,-99.99,,,-99.99,WSDL version 420,2013-03-25 10:07:00,
2013-03-25 06:13:00,29.8,21.0,28.82,North,3,2.1,3.8,66,-99.99,,,-99.99,WSDL version 420,2013-03-25 10:13:00,
2013-03-25 06:21:00,30.0,21.2,28.82,North,3,2.0,3.6,66,-99.99,,,-99.99,WSDL version 420,2013-03-25 10:21:00,
2013-03-25 06:27:00,30.0,21.2,28.82,NNE,15,2.2,3.8,66,-99.99,,,-99.99,WSDL version 420,2013-03-25 10:27:00,
2013-03-25 06:34:00,30.0,21.2,28.82,North,349,2.4,3.1,66,-99.99,,,-99.99,WSDL version 420,2013-03-25 10:34:00,
2013-03-25 06:41:00,30.0,21.2,28.82,NNW,341,2.1,3.6,66,-99.99,,,-99.99,WSDL version 420,2013-03-25 10:41:00,
2013-03-25 06:47:00,30.0,21.2,28.82,North,349,2.3,3.6,66,-99.99,,,-99.99,WSDL version 420,2013-03-25 10:47:00,
2013-03-25 06:55:00,29.9,21.1,28.82,NNW,338,1.3,3.6,66,-99.99,,,-99.99,WSDL version 420,2013-03-25 10:55:00,
2013-03-25 07:01:00,29.8,21.0,28.82,North,356,1.4,2.9,66,-99.99,,,-99.99,WSDL version 420,2013-03-25 11:01:00,
2013-03-25 07:06:00,29.8,21.0,28.82,NNW,338,2.3,3.6,66,-99.99,,,-99.99,WSDL version 420,2013-03-25 11:06:00,
2013-03-25 07:12:00,29.8,21.0,28.82,North,349,2.0,3.6,66,-99.99,,,-99.99,WSDL version 420,2013-03-25 11:12:00,
2013-03-25 07:18:00,29.8,21.0,28.82,NNW,341,2.3,4.0,66,-99.99,,,-99.99,WSDL version 420,2013-03-25 11:18:00,
2013-03-25 07:30:00,30.2,21.3,-100.00,North,9,1.9,3.8,66,-99.99,,,-99.99,WSDL version 420,2013-03-25 11:30:00,
2013-03-25 07:36:00,30.2,21.3,28.82,NNW,345,1.2,3.8,66,-99.99,,,-99.99,WSDL version 420,2013-03-25 11:36:00,
2013-03-25 07:41:00,30.2,21.3,28.82,NNE,17,2.5,3.6,66,-99.99,,,-99.99,WSDL version 420,2013-03-25 11:41:00,
2013-03-25 07:51:00,30.6,21.7,28.82,NNE,13,1.4,3.1,66,-99.99,,,-99.99,WSDL version 420,2013-03-25 11:51:00,
2013-03-25 07:56:00,30.7,21.9,28.82,NNW,338,2.1,2.9,66,-99.99,,,-99.99,WSDL version 420,2013-03-25 11:56:00,
2013-03-25 08:05:00,31.1,22.2,28.82,NNE,23,1.1,2.9,66,-99.99,,,-99.99,WSDL version 420,2013-03-25 12:05:00,
2013-03-25 08:13:00,31.1,21.9,28.82,ENE,68,0.7,2.5,65,-99.99,,,-99.99,WSDL version 420,2013-03-25 12:13:00,
2013-03-25 08:19:00,31.4,22.2,-100.00,ENE,68,0.0,2.5,65,-99.99,,,-99.99,WSDL version 420,2013-03-25 12:19:00,
2013-03-25 08:25:00,31.6,22.4,28.82,NE,42,0.2,2.5,65,-99.99,,,-99.99,WSDL version 420,2013-03-25 12:25:00,
2013-03-25 08:31:00,31.8,22.6,28.82,NE,41,1.3,4.3,65,-99.99,,,-99.99,WSDL version 420,2013-03-25 12:31:00,
2013-03-25 08:37:00,32.1,22.3,28.82,North,9,0.0,4.3,65,-99.99,,,-99.99,WSDL version 420,2013-03-25 12:37:00,
2013-03-25 08:45:00,32.4,21.9,28.79,North,360,1.3,3.1,65,-99.99,,,-99.99,WSDL version 420,2013-03-25 12:45:00,
2013-03-25 08:50:00,32.6,22.1,28.79,NNE,19,0.2,2.2,65,-99.99,,,-99.99,WSDL version 420,2013-03-25 12:50:00,
2013-03-25 08:57:00,32.9,22.3,28.79,NNE,23,1.0,3.1,64,-99.99,,,-99.99,WSDL version 420,2013-03-25 12:57:00,
2013-03-25 09:02:00,33.2,22.4,28.79,North,350,1.6,3.1,64,-99.99,,,-99.99,WSDL version 420,2013-03-25 13:02:00,
2013-03-25 09:08:00,33.8,22.5,28.79,NNW,343,2.2,2.9,63,-99.99,,,-99.99,WSDL version 420,2013-03-25 13:08:00,
2013-03-25 09:14:00,34.0,22.6,28.79,North,351,1.4,2.9,62,-99.99,,,-99.99,WSDL version 420,2013-03-25 13:14:00,
2013-03-25 09:20:00,34.3,22.7,28.79,ENE,58,1.6,2.9,62,-99.99,,,-99.99,WSDL version 420,2013-03-25 13:20:00,
2013-03-25 09:25:00,34.9,22.4,28.79,NNW,338,2.7,3.6,60,-99.99,,,-99.99,WSDL version 420,2013-03-25 13:25:00,
2013-03-25 09:33:00,35.4,22.7,28.79,NNW,340,2.1,3.6,59,-99.99,,,-99.99,WSDL version 420,2013-03-25 13:33:00,
2013-03-25 09:38:00,35.7,22.6,-100.00,NNW,338,2.0,3.8,58,-99.99,,,-99.99,WSDL version 420,2013-03-25 13:38:00,
2013-03-25 09:44:00,36.2,22.7,28.79,NNE,28,2.3,3.8,57,-99.99,,,-99.99,WSDL version 420,2013-03-25 13:44:00,
2013-03-25 09:50:00,36.7,22.9,28.79,NNW,338,1.6,3.6,57,-99.99,,,-99.99,WSDL version 420,2013-03-25 13:50:00,
2013-03-25 09:56:00,37.0,23.1,28.79,ENE,68,2.6,3.6,56,-99.99,,,-99.99,WSDL version 420,2013-03-25 13:56:00,
2013-03-25 10:02:00,37.7,23.0,28.79,NE,45,1.4,3.6,55,-99.99,,,-99.99,WSDL version 420,2013-03-25 14:02:00,
2013-03-25 10:08:00,38.5,23.3,-100.00,ENE,71,2.7,4.0,54,-99.99,,,-99.99,WSDL version 420,2013-03-25 14:08:00,
2013-03-25 10:14:00,38.9,23.5,28.79,NNE,32,2.1,4.0,53,-99.99,,,-99.99,WSDL version 420,2013-03-25 14:14:00,
2013-03-25 10:20:00,39.1,23.2,28.79,NE,51,1.8,3.6,52,-99.99,,,-99.99,WSDL version 420,2013-03-25 14:20:00,
2013-03-25 10:26:00,39.5,23.3,-100.00,East,90,0.6,5.4,52,-99.99,,,-99.99,WSDL version 420,2013-03-25 14:26:00,
2013-03-25 10:31:00,39.9,23.4,28.79,NE,41,2.0,3.8,51,-99.99,,,-99.99,WSDL version 420,2013-03-25 14:31:00,
2013-03-25 10:37:00,39.9,23.3,28.79,East,94,0.9,3.8,51,-99.99,,,-99.99,WSDL version 420,2013-03-25 14:37:00,
2013-03-25 10:43:00,39.7,22.6,28.79,ENE,68,2.1,4.0,50,-99.99,,,-99.99,WSDL version 420,2013-03-25 14:43:00,
2013-03-25 10:48:00,39.7,22.6,28.79,ENE,68,1.0,3.8,50,-99.99,,,-99.99,WSDL version 420,2013-03-25 14:48:00,
2013-03-25 10:54:00,39.8,22.7,28.79,ENE,62,1.2,3.4,50,-99.99,,,-99.99,WSDL version 420,2013-03-25 14:54:00,
2013-03-25 11:00:00,39.7,22.6,28.79,East,87,0.7,3.4,50,-99.99,,,-99.99,WSDL version 420,2013-03-25 15:00:00,
2013-03-25 11:13:00,39.7,22.6,-100.00,ENE,68,0.6,3.1,50,-99.99,,,-99.99,WSDL version 420,2013-03-25 15:13:00,
2013-03-25 11:20:00,39.7,22.6,28.79,ENE,64,1.8,3.6,50,-99.99,,,-99.99,WSDL version 420,2013-03-25 15:20:00,
2013-03-25 11:28:00,39.6,22.0,28.79,NNE,26,1.6,3.6,49,-99.99,,,-99.99,WSDL version 420,2013-03-25 15:28:00,
2013-03-25 11:34:00,39.6,22.0,-100.00,North,8,1.9,3.8,49,-99.99,,,-99.99,WSDL version 420,2013-03-25 15:34:00,
2013-03-25 11:40:00,39.7,22.2,-100.00,North,354,2.0,3.8,49,-99.99,,,-99.99,WSDL version 420,2013-03-25 15:40:00,
2013-03-25 11:45:00,40.2,22.6,28.79,NNE,15,1.8,3.4,49,-99.99,,,-99.99,WSDL version 420,2013-03-25 15:45:00,
2013-03-25 11:51:00,40.8,23.1,28.79,North,5,2.6,3.4,49,-99.99,,,-99.99,WSDL version 420,2013-03-25 15:51:00,
2013-03-25 11:57:00,41.6,23.5,28.79,North,4,2.2,3.6,49,-99.99,,,-99.99,WSDL version 420,2013-03-25 15:57:00,
2013-03-25 12:03:00,42.8,24.7,28.76,NE,45,1.9,3.6,48,-99.99,,,-99.99,WSDL version 420,2013-03-25 16:03:00,
2013-03-25 12:09:00,43.9,25.2,28.76,North,349,2.4,3.6,47,-99.99,,,-99.99,WSDL version 420,2013-03-25 16:09:00,
2013-03-25 12:15:00,44.1,24.4,28.82,ENE,60,1.3,3.6,46,-99.99,,,-99.99,WSDL version 420,2013-03-25 16:15:00,
2013-03-25 12:21:00,44.3,23.9,28.82,North,6,3.0,5.4,44,-99.99,,,-99.99,WSDL version 420,2013-03-25 16:21:00,
2013-03-25 12:27:00,44.2,23.4,28.82,NNE,15,2.2,4.9,43,-99.99,,,-99.99,WSDL version 420,2013-03-25 16:27:00,
2013-03-25 12:33:00,44.6,23.2,28.79,North,6,3.3,4.9,42,-99.99,,,-99.99,WSDL version 420,2013-03-25 16:33:00,
2013-03-25 12:39:00,45.0,23.7,28.79,NNW,345,2.7,4.9,42,-99.99,,,-99.99,WSDL version 420,2013-03-25 16:39:00,
2013-03-25 12:45:00,45.1,23.7,28.79,North,6,1.8,3.8,42,-99.99,,,-99.99,WSDL version 420,2013-03-25 16:45:00,
2013-03-25 12:51:00,45.0,23.3,28.79,NE,41,1.6,5.8,42,-99.99,,,-99.99,WSDL version 420,2013-03-25 16:51:00,
2013-03-25 12:57:00,45.1,23.5,28.79,NNW,346,3.0,5.8,41,-99.99,,,-99.99,WSDL version 420,2013-03-25 16:57:00,
2013-03-25 13:03:00,44.4,22.5,28.79,North,8,2.7,5.6,42,-99.99,,,-99.99,WSDL version 420,2013-03-25 17:03:00,
2013-03-25 13:09:00,43.8,22.2,28.79,North,3,3.1,5.6,42,-99.99,,,-99.99,WSDL version 420,2013-03-25 17:09:00,
2013-03-25 13:15:00,43.5,22.0,28.79,NNE,15,3.5,4.5,42,-99.99,,,-99.99,WSDL version 420,2013-03-25 17:15:00,
2013-03-25 13:22:00,43.6,22.0,28.79,ENE,60,2.9,8.1,42,-99.99,,,-99.99,WSDL version 420,2013-03-25 17:22:00,
2013-03-25 13:28:00,43.7,22.1,-100.00,NE,45,3.3,8.1,42,-99.99,,,-99.99,WSDL version 420,2013-03-25 17:28:00,
2013-03-25 13:33:00,43.7,22.1,28.79,NNW,340,3.4,6.5,42,-99.99,,,-99.99,WSDL version 420,2013-03-25 17:33:00,
2013-03-25 13:40:00,43.9,22.3,-100.00,NE,49,2.6,6.3,42,-99.99,,,-99.99,WSDL version 420,2013-03-25 17:40:00,
2013-03-25 13:47:00,43.7,22.1,28.79,NE,50,3.0,6.0,42,-99.99,,,-99.99,WSDL version 420,2013-03-25 17:47:00,
2013-03-25 13:53:00,43.5,22.0,28.79,ENE,63,3.0,6.3,42,-99.99,,,-99.99,WSDL version 420,2013-03-25 17:53:00,
2013-03-25 13:58:00,43.2,21.5,28.79,NNW,341,3.1,6.3,41,-99.99,,,-99.99,WSDL version 420,2013-03-25 17:58:00,
2013-03-25 14:04:00,42.9,21.4,28.79,NNW,345,2.2,5.4,42,-99.99,,,-99.99,WSDL version 420,2013-03-25 18:04:00,
2013-03-25 14:10:00,42.8,21.3,28.79,NE,42,2.0,6.0,42,-99.99,,,-99.99,WSDL version 420,2013-03-25 18:10:00,
2013-03-25 14:17:00,42.7,21.2,28.76,NNE,15,2.6,6.0,42,-99.99,,,-99.99,WSDL version 420,2013-03-25 18:17:00,
2013-03-25 14:22:00,42.6,21.3,-100.00,NNE,19,2.6,4.7,42,-99.99,,,-99.99,WSDL version 420,2013-03-25 18:22:00,
2013-03-25 14:28:00,42.4,20.9,28.76,North,350,1.8,3.6,42,-99.99,,,-99.99,WSDL version 420,2013-03-25 18:28:00,
2013-03-25 14:34:00,42.2,20.9,28.76,NNW,341,1.0,3.8,43,-99.99,,,-99.99,WSDL version 420,2013-03-25 18:34:00,
2013-03-25 14:40:00,41.8,20.4,-100.00,NE,45,1.5,5.4,42,-99.99,,,-99.99,WSDL version 420,2013-03-25 18:40:00,
2013-03-25 14:46:00,42.3,21.4,28.76,ENE,71,4.1,5.4,43,-99.99,,,-99.99,WSDL version 420,2013-03-25 18:46:00,
2013-03-25 14:52:00,42.5,21.6,28.76,NE,34,2.1,6.0,43,-99.99,,,-99.99,WSDL version 420,2013-03-25 18:52:00,
2013-03-25 14:58:00,42.7,21.5,-100.00,NE,41,3.0,6.0,42,-99.99,,,-99.99,WSDL version 420,2013-03-25 18:58:00,
2013-03-25 15:04:00,42.8,21.3,28.76,NNE,30,3.1,6.5,42,-99.99,,,-99.99,WSDL version 420,2013-03-25 19:04:00,
2013-03-25 15:10:00,43.1,21.5,28.76,NE,49,2.0,6.5,42,-99.99,,,-99.99,WSDL version 420,2013-03-25 19:10:00,
2013-03-25 15:16:00,43.7,22.1,28.76,NE,50,3.4,5.8,42,-99.99,,,-99.99,WSDL version 420,2013-03-25 19:16:00,
2013-03-25 15:22:00,43.5,21.5,28.76,North,11,2.6,5.8,41,-99.99,,,-99.99,WSDL version 420,2013-03-25 19:22:00,
2013-03-25 15:28:00,43.5,21.4,28.76,NE,34,2.8,5.4,41,-99.99,,,-99.99,WSDL version 420,2013-03-25 19:28:00,
2013-03-25 15:34:00,43.5,21.4,28.76,NE,37,2.9,5.4,41,-99.99,,,-99.99,WSDL version 420,2013-03-25 19:34:00,
2013-03-25 15:51:00,43.3,21.2,28.76,North,360,3.9,6.3,41,-99.99,,,-99.99,WSDL version 420,2013-03-25 19:51:00,
2013-03-25 15:57:00,43.1,20.8,28.76,NNW,347,2.2,5.4,40,-99.99,,,-99.99,WSDL version 420,2013-03-25 19:57:00,
2013-03-25 16:09:00,42.4,20.4,28.76,North,349,2.8,5.8,41,-99.99,,,-99.99,WSDL version 420,2013-03-25 20:09:00,
2013-03-25 16:15:00,42.3,20.2,28.76,NE,38,2.4,6.3,41,-99.99,,,-99.99,WSDL version 420,2013-03-25 20:15:00,
2013-03-25 16:20:00,42.3,20.2,28.76,NNW,347,2.4,6.3,41,-99.99,,,-99.99,WSDL version 420,2013-03-25 20:20:00,
2013-03-25 16:26:00,42.3,20.2,28.76,NE,34,2.7,6.0,41,-99.99,,,-99.99,WSDL version 420,2013-03-25 20:26:00,
2013-03-25 16:32:00,42.0,20.0,28.76,North,356,3.1,7.6,41,-99.99,,,-99.99,WSDL version 420,2013-03-25 20:32:00,
2013-03-25 16:38:00,41.9,19.9,-100.00,NNE,23,3.5,7.6,41,-99.99,,,-99.99,WSDL version 420,2013-03-25 20:38:00,
2013-03-25 16:44:00,41.7,20.1,28.76,North,8,3.4,5.8,42,-99.99,,,-99.99,WSDL version 420,2013-03-25 20:44:00,
2013-03-25 16:51:00,41.3,20.2,28.76,North,356,4.1,8.5,43,-99.99,,,-99.99,WSDL version 420,2013-03-25 20:51:00,
2013-03-25 16:57:00,41.2,20.4,28.76,North,349,2.6,5.8,43,-99.99,,,-99.99,WSDL version 420,2013-03-25 20:57:00,
2013-03-25 17:03:00,41.2,20.9,28.79,North,8,3.6,7.2,44,-99.99,,,-99.99,WSDL version 420,2013-03-25 21:03:00,
2013-03-25 17:09:00,40.8,20.6,-100.00,North,3,3.4,5.6,44,-99.99,,,-99.99,WSDL version 420,2013-03-25 21:09:00,
2013-03-25 17:15:00,40.5,20.8,28.79,NE,45,3.5,6.5,45,-99.99,,,-99.99,WSDL version 420,2013-03-25 21:15:00,
2013-03-25 17:20:00,40.1,20.5,-100.00,NNW,345,3.5,6.3,45,-99.99,,,-99.99,WSDL version 420,2013-03-25 21:20:00,
2013-03-25 17:26:00,39.7,20.1,28.79,ENE,61,3.6,6.3,45,-99.99,,,-99.99,WSDL version 420,2013-03-25 21:26:00,
2013-03-25 17:32:00,39.5,19.9,28.79,North,352,3.5,4.9,45,-99.99,,,-99.99,WSDL version 420,2013-03-25 21:32:00,
2013-03-25 17:38:00,39.4,19.8,28.79,North,356,2.0,5.4,45,-99.99,,,-99.99,WSDL version 420,2013-03-25 21:38:00,
2013-03-25 17:45:00,39.3,19.7,28.79,North,5,3.1,6.3,45,-99.99,,,-99.99,WSDL version 420,2013-03-25 21:45:00,
2013-03-25 17:51:00,39.0,19.5,28.79,North,353,4.2,7.2,45,-99.99,,,-99.99,WSDL version 420,2013-03-25 21:51:00,
2013-03-25 17:56:00,39.0,19.5,28.79,NNE,26,2.2,7.2,45,-99.99,,,-99.99,WSDL version 420,2013-03-25 21:56:00,
2013-03-25 18:02:00,39.1,19.8,28.79,NE,36,3.4,4.9,46,-99.99,,,-99.99,WSDL version 420,2013-03-25 22:02:00,
2013-03-25 18:08:00,39.0,20.0,28.79,NNW,338,3.8,6.0,46,-99.99,,,-99.99,WSDL version 420,2013-03-25 22:08:00,
2013-03-25 18:14:00,38.8,20.2,28.76,NNE,14,2.5,7.4,47,-99.99,,,-99.99,WSDL version 420,2013-03-25 22:14:00,
2013-03-25 18:20:00,38.7,20.5,28.76,North,357,2.1,7.4,48,-99.99,,,-99.99,WSDL version 420,2013-03-25 22:20:00,
2013-03-25 18:26:00,38.7,21.0,28.76,North,9,4.1,5.8,49,-99.99,,,-99.99,WSDL version 420,2013-03-25 22:26:00,
2013-03-25 18:31:00,38.5,21.2,-100.00,North,9,3.4,5.8,50,-99.99,,,-99.99,WSDL version 420,2013-03-25 22:31:00,
2013-03-25 18:41:00,38.1,21.4,28.79,North,357,3.3,6.0,51,-99.99,,,-99.99,WSDL version 420,2013-03-25 22:41:00,
2013-03-25 18:47:00,38.1,21.6,28.79,NNE,26,3.3,6.0,51,-99.99,,,-99.99,WSDL version 420,2013-03-25 22:47:00,
2013-03-25 18:53:00,37.9,21.4,28.79,North,356,2.1,5.4,51,-99.99,,,-99.99,WSDL version 420,2013-03-25 22:53:00,
2013-03-25 18:58:00,37.7,21.2,28.79,NNE,13,2.6,5.4,51,-99.99,,,-99.99,WSDL version 420,2013-03-25 22:58:00,
2013-03-25 19:04:00,37.5,21.0,28.79,NNE,13,2.4,5.8,51,-99.99,,,-99.99,WSDL version 420,2013-03-25 23:04:00,
2013-03-25 19:10:00,37.2,21.1,28.79,NNW,338,2.6,5.8,52,-99.99,,,-99.99,WSDL version 420,2013-03-25 23:10:00,
2013-03-25 19:16:00,36.9,21.2,28.82,NNE,26,3.3,5.6,53,-99.99,,,-99.99,WSDL version 420,2013-03-25 23:16:00,
2013-03-25 19:22:00,36.5,21.0,-100.00,NNE,20,1.9,5.4,53,-99.99,,,-99.99,WSDL version 420,2013-03-25 23:22:00,
2013-03-25 19:28:00,36.1,20.7,28.82,NNE,19,1.3,4.5,53,-99.99,,,-99.99,WSDL version 420,2013-03-25 23:28:00,
2013-03-25 19:34:00,35.9,20.9,28.82,North,355,2.2,4.0,54,-99.99,,,-99.99,WSDL version 420,2013-03-25 23:34:00,
2013-03-25 19:41:00,35.7,20.8,28.82,NNW,338,2.0,4.3,54,-99.99,,,-99.99,WSDL version 420,2013-03-25 23:41:00,
2013-03-25 19:47:00,35.4,21.0,28.85,North,360,2.5,4.3,56,-99.99,,,-99.99,WSDL version 420,2013-03-25 23:47:00,
2013-03-25 19:53:00,35.2,21.1,-100.00,North,349,2.3,4.0,56,-99.99,,,-99.99,WSDL version 420,2013-03-25 23:53:00,
2013-03-25 19:59:00,35.1,21.0,28.85,North,11,1.8,3.6,56,-99.99,,,-99.99,WSDL version 420,2013-03-25 23:59:00,
2013-03-25 20:05:00,34.9,20.8,28.85,NNE,20,1.3,4.0,56,-99.99,,,-99.99,WSDL version 420,2013-03-26 00:05:00,
2013-03-25 20:11:00,34.6,20.5,28.85,NNE,23,2.5,4.0,56,-99.99,,,-99.99,WSDL version 420,2013-03-26 00:11:00,
2013-03-25 20:17:00,34.5,20.5,-100.00,North,11,0.8,4.9,57,-99.99,,,-99.99,WSDL version 420,2013-03-26 00:17:00,
2013-03-25 20:24:00,34.5,20.4,28.85,NNE,17,1.4,4.9,56,-99.99,,,-99.99,WSDL version 420,2013-03-26 00:24:00,
2013-03-25 20:29:00,34.2,20.2,28.85,NNE,16,1.0,2.2,56,-99.99,,,-99.99,WSDL version 420,2013-03-26 00:29:00,
2013-03-25 20:38:00,34.0,19.9,28.85,NNE,23,0.3,2.9,56,-99.99,,,-99.99,WSDL version 420,2013-03-26 00:38:00,
2013-03-25 20:45:00,33.8,20.2,28.85,NNE,23,1.2,2.9,57,-99.99,,,-99.99,WSDL version 420,2013-03-26 00:45:00,
2013-03-25 20:52:00,33.6,20.0,28.85,NNW,338,1.4,3.6,57,-99.99,,,-99.99,WSDL version 420,2013-03-26 00:52:00,
2013-03-25 21:00:00,33.4,20.3,28.85,NNE,15,1.1,2.7,58,-99.99,,,-99.99,WSDL version 420,2013-03-26 01:00:00,
2013-03-25 21:06:00,33.4,20.2,28.85,NNE,14,1.8,4.3,58,-99.99,,,-99.99,WSDL version 420,2013-03-26 01:06:00,
2013-03-25 21:12:00,33.4,20.2,28.85,NNE,17,1.5,4.3,58,-99.99,,,-99.99,WSDL version 420,2013-03-26 01:12:00,
2013-03-25 21:18:00,33.4,20.9,28.85,NNE,14,2.4,6.0,60,-99.99,,,-99.99,WSDL version 420,2013-03-26 01:18:00,
2013-03-25 21:25:00,33.6,21.6,28.85,NNW,347,2.2,6.0,61,-99.99,,,-99.99,WSDL version 420,2013-03-26 01:25:00,
2013-03-25 21:32:00,33.8,21.8,28.85,NE,35,2.3,4.9,61,-99.99,,,-99.99,WSDL version 420,2013-03-26 01:32:00,
2013-03-25 21:38:00,34.0,22.0,28.85,NW,318,2.1,4.0,61,-99.99,,,-99.99,WSDL version 420,2013-03-26 01:38:00,
2013-03-25 21:44:00,34.0,22.0,28.85,NNW,334,4.3,6.3,61,-99.99,,,-99.99,WSDL version 420,2013-03-26 01:44:00,
2013-03-25 21:52:00,34.2,21.7,28.85,NNW,333,2.1,6.3,60,-99.99,,,-99.99,WSDL version 420,2013-03-26 01:52:00,
2013-03-25 21:57:00,34.2,21.7,28.85,NNW,332,2.5,4.3,60,-99.99,,,-99.99,WSDL version 420,2013-03-26 01:57:00,
2013-03-25 22:05:00,34.3,22.3,28.85,NW,323,3.0,4.7,61,-99.99,,,-99.99,WSDL version 420,2013-03-26 02:05:00,
2013-03-25 22:14:00,34.3,21.9,28.85,North,360,2.3,5.8,60,-99.99,,,-99.99,WSDL version 420,2013-03-26 02:14:00,
2013-03-25 22:19:00,34.3,21.9,28.85,North,349,1.3,4.3,60,-99.99,,,-99.99,WSDL version 420,2013-03-26 02:19:00,
2013-03-25 22:25:00,34.5,22.1,28.85,NNE,19,2.3,4.3,60,-99.99,,,-99.99,WSDL version 420,2013-03-26 02:25:00,
2013-03-25 22:36:00,34.5,21.7,28.85,NNW,330,1.2,3.1,59,-99.99,,,-99.99,WSDL version 420,2013-03-26 02:36:00,
2013-03-25 22:42:00,34.5,21.7,-100.00,NW,315,0.8,2.2,59,-99.99,,,-99.99,WSDL version 420,2013-03-26 02:42:00,
2013-03-25 22:47:00,34.5,22.1,28.85,NW,319,2.4,3.8,60,-99.99,,,-99.99,WSDL version 420,2013-03-26 02:47:00,
2013-03-25 22:53:00,34.5,22.1,28.85,NNE,14,2.6,4.3,60,-99.99,,,-99.99,WSDL version 420,2013-03-26 02:53:00,
2013-03-25 23:02:00,34.3,21.9,28.88,NW,309,0.5,4.0,60,-99.99,,,-99.99,WSDL version 420,2013-03-26 03:02:00,
2013-03-25 23:08:00,34.3,22.0,28.88,North,350,2.0,3.8,61,-99.99,,,-99.99,WSDL version 420,2013-03-26 03:08:00,
2013-03-25 23:15:00,34.3,22.3,28.85,NNE,15,2.2,4.9,61,-99.99,,,-99.99,WSDL version 420,2013-03-26 03:15:00,
2013-03-25 23:21:00,34.3,22.3,28.85,NNW,330,1.3,4.9,61,-99.99,,,-99.99,WSDL version 420,2013-03-26 03:21:00,
2013-03-25 23:27:00,34.3,22.4,28.85,North,357,2.6,4.0,62,-99.99,,,-99.99,WSDL version 420,2013-03-26 03:27:00,
2013-03-25 23:33:00,34.3,22.7,28.85,NW,315,2.5,4.0,62,-99.99,,,-99.99,WSDL version 420,2013-03-26 03:33:00,
2013-03-25 23:39:00,34.3,23.1,28.85,NW,318,1.9,4.3,63,-99.99,,,-99.99,WSDL version 420,2013-03-26 03:39:00,
2013-03-25 23:45:00,34.3,23.1,28.88,NNW,348,1.7,5.6,63,-99.99,,,-99.99,WSDL version 420,2013-03-26 03:45:00,
2013-03-25 23:52:00,34.3,22.7,28.88,SE,146,0.6,4.0,62,-99.99,,,-99.99,WSDL version 420,2013-03-26 03:52:00,
2013-03-25 23:58:00,34.3,22.7,28.88,NW,326,2.1,3.1,63,-99.99,,,-99.99,WSDL version 420,2013-03-26 03:58:00,